sensor_id;sensor_type;location;lat;lon;timestamp;temperature;humidity
12700;DHT22;6414;49.570;6.060;2023-03-01T00:02:32;-0.70;1.00
12700;DHT22;6414;49.570;6.060;2023-03-01T00:05:19;-0.80;21.20
12700;DHT22;6414;49.570;6.060;2023-03-01T00:08:04;-0.90;17.40
12700;DHT22;6414;49.570;6.060;2023-03-01T00:10:59;-0.80;99.90
12700;DHT22;6414;49.570;6.060;2023-03-01T00:13:35;-0.90;99.90
12700;DHT22;6414;49.570;6.060;2023-03-01T00:16:24;-0.80;99.90
12700;DHT22;6414;49.570;6.060;2023-03-01T00:19:12;-0.80;99.90
12700;DHT22;6414;49.570;6.060;2023-03-01T00:21:55;-0.80;99.90
12700;DHT22;6414;49.570;6.060;2023-03-01T00:24:41;-0.80;99.90
12700;DHT22;6414;49.570;6.060;2023-03-01T00:27:27;-0.90;99.90
12700;DHT22;6414;49.570;6.060;2023-03-01T00:30:12;-0.80;99.90
12700;DHT22;6414;49.570;6.060;2023-03-01T00:32:59;-0.80;99.90
12700;DHT22;6414;49.570;6.060;2023-03-01T00:35:44;-0.80;99.90
12700;DHT22;6414;49.570;6.060;2023-03-01T00:38:29;-0.90;99.90
12700;DHT22;6414;49.570;6.060;2023-03-01T00:41:16;-1.00;1.00
12700;DHT22;6414;49.570;6.060;2023-03-01T00:44:01;-1.00;1.00
12700;DHT22;6414;49.570;6.060;2023-03-01T00:46:47;-1.00;1.00
12700;DHT22;6414;49.570;6.060;2023-03-01T00:49:32;-0.90;1.00
12700;DHT22;6414;49.570;6.060;2023-03-01T00:52:18;-0.70;1.00
12700;DHT22;6414;49.570;6.060;2023-03-01T00:55:04;-0.70;99.90
12700;DHT22;6414;49.570;6.060;2023-03-01T00:57:49;-0.80;99.90
12700;DHT22;6414;49.570;6.060;2023-03-01T01:00:34;-0.90;99.90
12700;DHT22;6414;49.570;6.060;2023-03-01T01:03:19;-0.80;1.00
12700;DHT22;6414;49.570;6.060;2023-03-01T01:06:04;-0.90;1.00
12700;DHT22;6414;49.570;6.060;2023-03-01T01:08:50;-1.00;1.00
12700;DHT22;6414;49.570;6.060;2023-03-01T01:11:35;-1.10;1.00
12700;DHT22;6414;49.570;6.060;2023-03-01T01:14:20;-1.10;99.90
12700;DHT22;6414;49.570;6.060;2023-03-01T01:17:06;-1.10;99.90
12700;DHT22;6414;49.570;6.060;2023-03-01T01:19:52;-1.40;1.00
12700;DHT22;6414;49.570;6.060;2023-03-01T01:22:38;-1.40;1.00
12700;DHT22;6414;49.570;6.060;2023-03-01T01:25:24;-1.70;1.00
12700;DHT22;6414;49.570;6.060;2023-03-01T01:28:12;-1.70;1.00
12700;DHT22;6414;49.570;6.060;2023-03-01T01:30:58;-1.80;99.90
12700;DHT22;6414;49.570;6.060;2023-03-01T01:33:45;-1.80;99.90
12700;DHT22;6414;49.570;6.060;2023-03-01T01:36:31;-1.80;99.90
12700;DHT22;6414;49.570;6.060;2023-03-01T01:39:16;-1.70;99.90
12700;DHT22;6414;49.570;6.060;2023-03-01T01:42:01;-1.70;99.90
12700;DHT22;6414;49.570;6.060;2023-03-01T01:44:47;-1.50;99.90
12700;DHT22;6414;49.570;6.060;2023-03-01T01:47:33;-1.40;99.90
12700;DHT22;6414;49.570;6.060;2023-03-01T01:50:20;-1.40;99.90
12700;DHT22;6414;49.570;6.060;2023-03-01T01:53:06;-1.40;99.90
12700;DHT22;6414;49.570;6.060;2023-03-01T01:55:56;-1.40;28.50
12700;DHT22;6414;49.570;6.060;2023-03-01T01:58:39;-1.40;19.10
12700;DHT22;6414;49.570;6.060;2023-03-01T02:01:24;-1.40;93.20
12700;DHT22;6414;49.570;6.060;2023-03-01T02:04:10;-1.40;99.90
12700;DHT22;6414;49.570;6.060;2023-03-01T02:07:07;-1.30;99.90
12700;DHT22;6414;49.570;6.060;2023-03-01T02:09:51;-1.40;99.90
12700;DHT22;6414;49.570;6.060;2023-03-01T02:12:36;-1.40;99.90
12700;DHT22;6414;49.570;6.060;2023-03-01T02:15:22;-1.40;99.90
12700;DHT22;6414;49.570;6.060;2023-03-01T02:18:07;-1.40;99.90
12700;DHT22;6414;49.570;6.060;2023-03-01T02:23:57;-1.40;99.90
12700;DHT22;6414;49.570;6.060;2023-03-01T02:26:48;-1.50;99.90
12700;DHT22;6414;49.570;6.060;2023-03-01T02:29:33;-1.50;99.90
12700;DHT22;6414;49.570;6.060;2023-03-01T02:32:18;-1.40;1.00
12700;DHT22;6414;49.570;6.060;2023-03-01T02:35:03;-1.30;1.00
12700;DHT22;6414;49.570;6.060;2023-03-01T02:37:50;-1.30;1.00
12700;DHT22;6414;49.570;6.060;2023-03-01T02:40:36;-1.30;99.90
12700;DHT22;6414;49.570;6.060;2023-03-01T02:43:22;-1.30;99.90
12700;DHT22;6414;49.570;6.060;2023-03-01T02:46:12;-1.30;99.90
12700;DHT22;6414;49.570;6.060;2023-03-01T02:48:56;-1.20;99.90
12700;DHT22;6414;49.570;6.060;2023-03-01T02:54:36;-1.40;99.90
12700;DHT22;6414;49.570;6.060;2023-03-01T02:57:19;-1.50;99.90
12700;DHT22;6414;49.570;6.060;2023-03-01T03:00:06;-1.40;1.00
12700;DHT22;6414;49.570;6.060;2023-03-01T03:02:51;-1.40;1.00
12700;DHT22;6414;49.570;6.060;2023-03-01T03:05:35;-1.50;1.00
12700;DHT22;6414;49.570;6.060;2023-03-01T03:08:21;-1.70;1.00
12700;DHT22;6414;49.570;6.060;2023-03-01T03:11:06;-1.90;1.00
12700;DHT22;6414;49.570;6.060;2023-03-01T03:13:52;-2.00;1.00
12700;DHT22;6414;49.570;6.060;2023-03-01T03:16:45;-2.00;1.00
12700;DHT22;6414;49.570;6.060;2023-03-01T03:19:29;-2.00;1.00
12700;DHT22;6414;49.570;6.060;2023-03-01T03:22:15;-2.10;1.00
12700;DHT22;6414;49.570;6.060;2023-03-01T03:25:01;-2.20;1.00
12700;DHT22;6414;49.570;6.060;2023-03-01T03:27:47;-2.40;17.00
12700;DHT22;6414;49.570;6.060;2023-03-01T03:30:32;-2.50;52.90
12700;DHT22;6414;49.570;6.060;2023-03-01T03:33:18;-2.30;69.10
12700;DHT22;6414;49.570;6.060;2023-03-01T03:36:04;-2.30;59.10
12700;DHT22;6414;49.570;6.060;2023-03-01T03:38:50;-2.50;80.80
12700;DHT22;6414;49.570;6.060;2023-03-01T03:41:35;-2.50;99.90
12700;DHT22;6414;49.570;6.060;2023-03-01T03:44:20;-2.40;99.90
12700;DHT22;6414;49.570;6.060;2023-03-01T03:47:05;-2.30;99.90
12700;DHT22;6414;49.570;6.060;2023-03-01T03:49:51;-2.30;99.90
12700;DHT22;6414;49.570;6.060;2023-03-01T03:52:36;-2.30;99.90
12700;DHT22;6414;49.570;6.060;2023-03-01T03:55:22;-2.30;99.90
12700;DHT22;6414;49.570;6.060;2023-03-01T03:58:09;-2.10;93.00
12700;DHT22;6414;49.570;6.060;2023-03-01T04:00:55;-2.10;83.10
12700;DHT22;6414;49.570;6.060;2023-03-01T04:03:40;-2.10;78.70
12700;DHT22;6414;49.570;6.060;2023-03-01T04:06:26;-2.10;82.90
12700;DHT22;6414;49.570;6.060;2023-03-01T04:09:12;-2.10;73.60
12700;DHT22;6414;49.570;6.060;2023-03-01T04:11:57;-2.20;90.50
12700;DHT22;6414;49.570;6.060;2023-03-01T04:14:43;-2.10;95.00
12700;DHT22;6414;49.570;6.060;2023-03-01T04:17:30;-2.20;99.90
12700;DHT22;6414;49.570;6.060;2023-03-01T04:20:16;-2.20;99.90
12700;DHT22;6414;49.570;6.060;2023-03-01T04:23:05;-2.20;99.90
12700;DHT22;6414;49.570;6.060;2023-03-01T04:25:56;-2.20;99.90
12700;DHT22;6414;49.570;6.060;2023-03-01T04:28:41;-2.10;99.90
12700;DHT22;6414;49.570;6.060;2023-03-01T04:31:26;-2.10;99.90
12700;DHT22;6414;49.570;6.060;2023-03-01T04:34:11;-2.10;99.90
12700;DHT22;6414;49.570;6.060;2023-03-01T04:36:56;-2.20;99.90
12700;DHT22;6414;49.570;6.060;2023-03-01T04:39:42;-2.10;99.90
12700;DHT22;6414;49.570;6.060;2023-03-01T04:42:27;-2.10;99.90
12700;DHT22;6414;49.570;6.060;2023-03-01T04:45:12;-2.20;99.90
12700;DHT22;6414;49.570;6.060;2023-03-01T04:47:57;-2.10;99.90
12700;DHT22;6414;49.570;6.060;2023-03-01T04:50:42;-2.10;99.90
12700;DHT22;6414;49.570;6.060;2023-03-01T04:53:28;-2.10;99.90
12700;DHT22;6414;49.570;6.060;2023-03-01T04:56:15;-2.10;99.90
12700;DHT22;6414;49.570;6.060;2023-03-01T04:59:00;-2.00;99.90
12700;DHT22;6414;49.570;6.060;2023-03-01T05:01:45;-2.10;99.90
12700;DHT22;6414;49.570;6.060;2023-03-01T05:04:30;-2.10;99.90
12700;DHT22;6414;49.570;6.060;2023-03-01T05:07:16;-2.00;99.90
12700;DHT22;6414;49.570;6.060;2023-03-01T05:10:01;-2.00;99.90
12700;DHT22;6414;49.570;6.060;2023-03-01T05:12:47;-2.00;99.90
12700;DHT22;6414;49.570;6.060;2023-03-01T05:15:32;-2.00;99.90
12700;DHT22;6414;49.570;6.060;2023-03-01T05:18:18;-2.10;99.90
12700;DHT22;6414;49.570;6.060;2023-03-01T05:21:07;-2.00;99.90
12700;DHT22;6414;49.570;6.060;2023-03-01T05:23:52;-2.00;99.90
12700;DHT22;6414;49.570;6.060;2023-03-01T05:26:37;-2.00;99.90
12700;DHT22;6414;49.570;6.060;2023-03-01T05:29:25;-1.90;99.90
12700;DHT22;6414;49.570;6.060;2023-03-01T05:32:12;-1.90;99.90
12700;DHT22;6414;49.570;6.060;2023-03-01T05:34:57;-1.90;99.90
12700;DHT22;6414;49.570;6.060;2023-03-01T05:37:46;-1.90;99.90
12700;DHT22;6414;49.570;6.060;2023-03-01T05:40:28;-1.90;99.90
12700;DHT22;6414;49.570;6.060;2023-03-01T05:43:13;-1.80;99.90
12700;DHT22;6414;49.570;6.060;2023-03-01T05:45:58;-1.90;99.90
12700;DHT22;6414;49.570;6.060;2023-03-01T05:48:43;-1.80;99.90
12700;DHT22;6414;49.570;6.060;2023-03-01T05:51:28;-1.80;99.90
12700;DHT22;6414;49.570;6.060;2023-03-01T05:54:14;-1.80;99.90
12700;DHT22;6414;49.570;6.060;2023-03-01T05:57:00;-1.90;99.90
12700;DHT22;6414;49.570;6.060;2023-03-01T05:59:45;-2.00;99.90
12700;DHT22;6414;49.570;6.060;2023-03-01T06:02:31;-2.00;99.90
12700;DHT22;6414;49.570;6.060;2023-03-01T06:05:16;-2.00;99.90
12700;DHT22;6414;49.570;6.060;2023-03-01T06:08:02;-2.00;99.90
12700;DHT22;6414;49.570;6.060;2023-03-01T06:10:47;-2.00;99.90
12700;DHT22;6414;49.570;6.060;2023-03-01T06:13:32;-2.00;99.90
12700;DHT22;6414;49.570;6.060;2023-03-01T06:16:18;-2.00;99.90
12700;DHT22;6414;49.570;6.060;2023-03-01T06:19:03;-2.00;99.90
12700;DHT22;6414;49.570;6.060;2023-03-01T06:21:48;-2.00;99.90
12700;DHT22;6414;49.570;6.060;2023-03-01T06:24:33;-2.00;99.90
12700;DHT22;6414;49.570;6.060;2023-03-01T06:27:19;-2.00;99.90
12700;DHT22;6414;49.570;6.060;2023-03-01T06:30:04;-2.00;99.90
12700;DHT22;6414;49.570;6.060;2023-03-01T06:32:50;-2.00;99.90
12700;DHT22;6414;49.570;6.060;2023-03-01T06:35:35;-2.00;99.90
12700;DHT22;6414;49.570;6.060;2023-03-01T06:38:22;-2.00;99.90
12700;DHT22;6414;49.570;6.060;2023-03-01T06:41:08;-2.00;99.90
12700;DHT22;6414;49.570;6.060;2023-03-01T06:43:54;-2.00;99.90
12700;DHT22;6414;49.570;6.060;2023-03-01T06:46:39;-2.00;99.90
12700;DHT22;6414;49.570;6.060;2023-03-01T06:49:25;-1.90;99.90
12700;DHT22;6414;49.570;6.060;2023-03-01T06:52:10;-1.90;99.90
12700;DHT22;6414;49.570;6.060;2023-03-01T06:54:56;-1.90;99.90
12700;DHT22;6414;49.570;6.060;2023-03-01T06:57:42;-1.80;99.90
12700;DHT22;6414;49.570;6.060;2023-03-01T07:00:28;-1.80;99.90
12700;DHT22;6414;49.570;6.060;2023-03-01T07:03:13;-1.80;99.90
12700;DHT22;6414;49.570;6.060;2023-03-01T07:05:59;-1.80;99.90
12700;DHT22;6414;49.570;6.060;2023-03-01T07:08:46;-1.80;99.90
12700;DHT22;6414;49.570;6.060;2023-03-01T07:11:32;-1.80;99.90
12700;DHT22;6414;49.570;6.060;2023-03-01T07:14:17;-1.80;99.90
12700;DHT22;6414;49.570;6.060;2023-03-01T07:17:03;-1.80;99.90
12700;DHT22;6414;49.570;6.060;2023-03-01T07:19:50;-1.80;99.90
12700;DHT22;6414;49.570;6.060;2023-03-01T07:22:35;-1.80;99.90
12700;DHT22;6414;49.570;6.060;2023-03-01T07:25:20;-1.70;99.90
12700;DHT22;6414;49.570;6.060;2023-03-01T07:28:06;-1.70;99.90
12700;DHT22;6414;49.570;6.060;2023-03-01T07:30:51;-1.70;99.90
12700;DHT22;6414;49.570;6.060;2023-03-01T07:33:38;-1.60;99.90
12700;DHT22;6414;49.570;6.060;2023-03-01T07:36:23;-1.60;99.90
12700;DHT22;6414;49.570;6.060;2023-03-01T07:39:09;-1.60;99.90
12700;DHT22;6414;49.570;6.060;2023-03-01T07:41:54;-1.60;99.90
12700;DHT22;6414;49.570;6.060;2023-03-01T07:44:40;-1.60;99.90
12700;DHT22;6414;49.570;6.060;2023-03-01T07:47:26;-1.40;99.90
12700;DHT22;6414;49.570;6.060;2023-03-01T07:50:11;-1.40;99.90
12700;DHT22;6414;49.570;6.060;2023-03-01T07:52:57;-1.40;99.90
12700;DHT22;6414;49.570;6.060;2023-03-01T07:55:42;-1.30;99.90
12700;DHT22;6414;49.570;6.060;2023-03-01T07:58:27;-1.20;99.90
12700;DHT22;6414;49.570;6.060;2023-03-01T08:01:15;-1.10;86.50
12700;DHT22;6414;49.570;6.060;2023-03-01T08:03:59;-1.10;77.80
12700;DHT22;6414;49.570;6.060;2023-03-01T08:06:44;-0.90;83.90
12700;DHT22;6414;49.570;6.060;2023-03-01T08:09:29;-1.00;40.40
12700;DHT22;6414;49.570;6.060;2023-03-01T08:12:14;-0.80;17.50
12700;DHT22;6414;49.570;6.060;2023-03-01T08:14:59;-0.70;1.00
12700;DHT22;6414;49.570;6.060;2023-03-01T08:17:44;-0.60;5.20
12700;DHT22;6414;49.570;6.060;2023-03-01T08:20:30;-0.60;1.00
12700;DHT22;6414;49.570;6.060;2023-03-01T08:23:15;-0.60;1.00
12700;DHT22;6414;49.570;6.060;2023-03-01T08:26:10;-0.40;1.00
12700;DHT22;6414;49.570;6.060;2023-03-01T08:28:52;-0.40;1.00
12700;DHT22;6414;49.570;6.060;2023-03-01T08:31:38;-0.30;1.00
12700;DHT22;6414;49.570;6.060;2023-03-01T08:34:22;0.00;1.00
12700;DHT22;6414;49.570;6.060;2023-03-01T08:37:07;0.00;1.00
12700;DHT22;6414;49.570;6.060;2023-03-01T08:39:53;0.00;1.00
12700;DHT22;6414;49.570;6.060;2023-03-01T08:42:38;0.00;1.00
12700;DHT22;6414;49.570;6.060;2023-03-01T08:45:24;-0.10;99.90
12700;DHT22;6414;49.570;6.060;2023-03-01T08:48:09;0.00;1.00
12700;DHT22;6414;49.570;6.060;2023-03-01T08:50:56;0.10;99.90
12700;DHT22;6414;49.570;6.060;2023-03-01T08:53:41;0.10;99.90
12700;DHT22;6414;49.570;6.060;2023-03-01T08:56:27;0.40;99.90
12700;DHT22;6414;49.570;6.060;2023-03-01T08:59:13;0.50;99.90
12700;DHT22;6414;49.570;6.060;2023-03-01T09:01:57;0.30;70.80
12700;DHT22;6414;49.570;6.060;2023-03-01T09:04:43;0.40;99.90
12700;DHT22;6414;49.570;6.060;2023-03-01T09:07:28;0.50;79.20
12700;DHT22;6414;49.570;6.060;2023-03-01T09:10:14;0.50;1.00
12700;DHT22;6414;49.570;6.060;2023-03-01T09:12:59;0.70;1.00
12700;DHT22;6414;49.570;6.060;2023-03-01T09:15:45;0.70;1.00
12700;DHT22;6414;49.570;6.060;2023-03-01T09:18:31;0.70;1.00
12700;DHT22;6414;49.570;6.060;2023-03-01T09:21:16;1.00;99.90
12700;DHT22;6414;49.570;6.060;2023-03-01T09:24:02;1.00;1.00
12700;DHT22;6414;49.570;6.060;2023-03-01T09:26:47;1.10;1.00
12700;DHT22;6414;49.570;6.060;2023-03-01T09:29:34;2.00;1.00
12700;DHT22;6414;49.570;6.060;2023-03-01T09:32:19;1.90;1.00
12700;DHT22;6414;49.570;6.060;2023-03-01T09:35:04;2.60;99.90
12700;DHT22;6414;49.570;6.060;2023-03-01T09:37:50;3.20;1.00
12700;DHT22;6414;49.570;6.060;2023-03-01T09:40:35;3.50;1.00
12700;DHT22;6414;49.570;6.060;2023-03-01T09:46:14;3.40;99.90
12700;DHT22;6414;49.570;6.060;2023-03-01T09:49:00;3.30;99.90
12700;DHT22;6414;49.570;6.060;2023-03-01T09:51:46;3.40;99.90
12700;DHT22;6414;49.570;6.060;2023-03-01T09:54:29;3.90;99.90
12700;DHT22;6414;49.570;6.060;2023-03-01T09:57:18;4.50;99.90
12700;DHT22;6414;49.570;6.060;2023-03-01T10:00:14;4.30;99.90
12700;DHT22;6414;49.570;6.060;2023-03-01T10:09:02;4.10;99.90
12700;DHT22;6414;49.570;6.060;2023-03-01T10:11:51;4.70;99.90
12700;DHT22;6414;49.570;6.060;2023-03-01T10:14:36;4.70;99.90
12700;DHT22;6414;49.570;6.060;2023-03-01T10:17:35;3.50;99.90
12700;DHT22;6414;49.570;6.060;2023-03-01T10:20:26;3.40;99.90
12700;DHT22;6414;49.570;6.060;2023-03-01T10:23:10;3.30;99.90
12700;DHT22;6414;49.570;6.060;2023-03-01T10:26:21;3.40;99.90
12700;DHT22;6414;49.570;6.060;2023-03-01T10:29:04;3.90;99.90
12700;DHT22;6414;49.570;6.060;2023-03-01T10:31:49;3.60;99.90
12700;DHT22;6414;49.570;6.060;2023-03-01T10:34:35;3.30;99.90
12700;DHT22;6414;49.570;6.060;2023-03-01T10:37:21;3.80;99.90
12700;DHT22;6414;49.570;6.060;2023-03-01T10:40:07;3.80;99.90
12700;DHT22;6414;49.570;6.060;2023-03-01T10:42:55;3.50;99.90
12700;DHT22;6414;49.570;6.060;2023-03-01T10:45:40;3.40;99.90
12700;DHT22;6414;49.570;6.060;2023-03-01T10:48:26;3.40;99.90
12700;DHT22;6414;49.570;6.060;2023-03-01T10:51:12;3.60;99.90
12700;DHT22;6414;49.570;6.060;2023-03-01T10:53:56;3.60;99.90
12700;DHT22;6414;49.570;6.060;2023-03-01T10:56:51;3.10;99.90
12700;DHT22;6414;49.570;6.060;2023-03-01T10:59:37;2.90;99.90
12700;DHT22;6414;49.570;6.060;2023-03-01T11:02:31;2.70;1.00
12700;DHT22;6414;49.570;6.060;2023-03-01T11:05:17;3.20;99.90
12700;DHT22;6414;49.570;6.060;2023-03-01T11:08:02;3.30;99.90
12700;DHT22;6414;49.570;6.060;2023-03-01T11:10:46;3.00;1.00
12700;DHT22;6414;49.570;6.060;2023-03-01T11:13:32;3.30;1.00
12700;DHT22;6414;49.570;6.060;2023-03-01T11:16:22;3.30;99.90
12700;DHT22;6414;49.570;6.060;2023-03-01T11:21:59;3.50;99.90
12700;DHT22;6414;49.570;6.060;2023-03-01T11:24:46;3.30;99.90
12700;DHT22;6414;49.570;6.060;2023-03-01T11:27:38;3.50;1.00
12700;DHT22;6414;49.570;6.060;2023-03-01T11:30:28;3.30;99.90
12700;DHT22;6414;49.570;6.060;2023-03-01T11:36:53;3.30;99.90
12700;DHT22;6414;49.570;6.060;2023-03-01T11:39:38;3.50;1.00
12700;DHT22;6414;49.570;6.060;2023-03-01T11:48:46;3.70;99.90
12700;DHT22;6414;49.570;6.060;2023-03-01T11:58:22;3.60;99.90
12700;DHT22;6414;49.570;6.060;2023-03-01T12:01:12;3.90;99.90
12700;DHT22;6414;49.570;6.060;2023-03-01T12:04:24;3.90;99.90
12700;DHT22;6414;49.570;6.060;2023-03-01T12:10:23;4.20;99.90
12700;DHT22;6414;49.570;6.060;2023-03-01T12:13:23;4.20;99.90
12700;DHT22;6414;49.570;6.060;2023-03-01T12:19:26;4.30;99.90
12700;DHT22;6414;49.570;6.060;2023-03-01T12:22:32;4.10;99.90
12700;DHT22;6414;49.570;6.060;2023-03-01T12:25:21;4.40;99.90
12700;DHT22;6414;49.570;6.060;2023-03-01T12:28:38;4.80;99.90
12700;DHT22;6414;49.570;6.060;2023-03-01T12:34:28;4.80;99.90
12700;DHT22;6414;49.570;6.060;2023-03-01T12:37:25;4.80;99.90
12700;DHT22;6414;49.570;6.060;2023-03-01T12:43:46;4.80;99.90
12700;DHT22;6414;49.570;6.060;2023-03-01T12:49:48;5.00;42.90
12700;DHT22;6414;49.570;6.060;2023-03-01T12:52:32;4.90;99.90
12700;DHT22;6414;49.570;6.060;2023-03-01T12:55:41;5.00;99.90
12700;DHT22;6414;49.570;6.060;2023-03-01T13:07:36;5.00;98.10
12700;DHT22;6414;49.570;6.060;2023-03-01T13:10:33;4.90;99.90
12700;DHT22;6414;49.570;6.060;2023-03-01T13:13:25;4.90;99.90
12700;DHT22;6414;49.570;6.060;2023-03-01T13:16:38;5.00;99.90
12700;DHT22;6414;49.570;6.060;2023-03-01T13:19:16;5.30;68.10
12700;DHT22;6414;49.570;6.060;2023-03-01T13:22:01;5.30;94.00
12700;DHT22;6414;49.570;6.060;2023-03-01T13:24:47;5.30;93.90
12700;DHT22;6414;49.570;6.060;2023-03-01T13:27:33;5.40;21.00
12700;DHT22;6414;49.570;6.060;2023-03-01T13:39:28;5.40;27.10
12700;DHT22;6414;49.570;6.060;2023-03-01T13:42:36;5.50;78.20
12700;DHT22;6414;49.570;6.060;2023-03-01T13:45:24;5.60;1.00
12700;DHT22;6414;49.570;6.060;2023-03-01T13:48:21;5.60;1.00
12700;DHT22;6414;49.570;6.060;2023-03-01T13:51:05;5.70;1.00
12700;DHT22;6414;49.570;6.060;2023-03-01T13:53:49;5.70;1.00
12700;DHT22;6414;49.570;6.060;2023-03-01T13:56:36;5.70;1.00
12700;DHT22;6414;49.570;6.060;2023-03-01T13:59:21;5.60;1.00
12700;DHT22;6414;49.570;6.060;2023-03-01T14:02:11;5.70;1.00
12700;DHT22;6414;49.570;6.060;2023-03-01T14:04:58;5.90;1.30
12700;DHT22;6414;49.570;6.060;2023-03-01T14:07:42;5.80;1.00
12700;DHT22;6414;49.570;6.060;2023-03-01T14:11:06;5.80;1.00
12700;DHT22;6414;49.570;6.060;2023-03-01T14:13:31;5.60;1.00
12700;DHT22;6414;49.570;6.060;2023-03-01T14:16:28;5.70;1.00
12700;DHT22;6414;49.570;6.060;2023-03-01T14:19:19;5.70;1.00
12700;DHT22;6414;49.570;6.060;2023-03-01T14:22:26;5.80;1.00
12700;DHT22;6414;49.570;6.060;2023-03-01T14:25:20;5.80;1.00
12700;DHT22;6414;49.570;6.060;2023-03-01T14:28:17;5.90;1.00
12700;DHT22;6414;49.570;6.060;2023-03-01T14:31:03;5.90;1.00
12700;DHT22;6414;49.570;6.060;2023-03-01T14:33:53;5.90;1.00
12700;DHT22;6414;49.570;6.060;2023-03-01T14:36:35;5.70;1.00
12700;DHT22;6414;49.570;6.060;2023-03-01T14:39:25;5.80;1.00
12700;DHT22;6414;49.570;6.060;2023-03-01T14:42:11;5.70;1.00
12700;DHT22;6414;49.570;6.060;2023-03-01T14:44:56;5.70;1.00
12700;DHT22;6414;49.570;6.060;2023-03-01T14:47:43;5.70;1.00
12700;DHT22;6414;49.570;6.060;2023-03-01T14:50:31;5.90;1.00
12700;DHT22;6414;49.570;6.060;2023-03-01T14:53:17;5.90;1.00
12700;DHT22;6414;49.570;6.060;2023-03-01T14:56:01;5.80;1.00
12700;DHT22;6414;49.570;6.060;2023-03-01T14:58:51;5.90;1.00
12700;DHT22;6414;49.570;6.060;2023-03-01T15:01:36;5.90;1.00
12700;DHT22;6414;49.570;6.060;2023-03-01T15:04:22;5.90;1.00
12700;DHT22;6414;49.570;6.060;2023-03-01T15:07:09;5.90;1.00
12700;DHT22;6414;49.570;6.060;2023-03-01T15:09:53;5.90;1.00
12700;DHT22;6414;49.570;6.060;2023-03-01T15:12:40;5.80;1.00
12700;DHT22;6414;49.570;6.060;2023-03-01T15:18:21;5.70;1.00
12700;DHT22;6414;49.570;6.060;2023-03-01T15:21:08;5.70;1.00
12700;DHT22;6414;49.570;6.060;2023-03-01T15:23:57;5.60;1.00
12700;DHT22;6414;49.570;6.060;2023-03-01T15:26:42;5.70;1.00
12700;DHT22;6414;49.570;6.060;2023-03-01T15:29:30;5.80;1.00
12700;DHT22;6414;49.570;6.060;2023-03-01T15:35:33;5.90;1.00
12700;DHT22;6414;49.570;6.060;2023-03-01T15:41:27;5.90;1.00
12700;DHT22;6414;49.570;6.060;2023-03-01T15:44:17;5.80;1.00
12700;DHT22;6414;49.570;6.060;2023-03-01T15:47:01;5.70;1.00
12700;DHT22;6414;49.570;6.060;2023-03-01T15:49:46;5.70;1.00
12700;DHT22;6414;49.570;6.060;2023-03-01T15:52:38;5.70;1.00
12700;DHT22;6414;49.570;6.060;2023-03-01T15:55:22;5.70;1.00
12700;DHT22;6414;49.570;6.060;2023-03-01T15:58:10;5.70;1.00
12700;DHT22;6414;49.570;6.060;2023-03-01T16:00:55;5.70;1.00
12700;DHT22;6414;49.570;6.060;2023-03-01T16:03:40;5.70;1.00
12700;DHT22;6414;49.570;6.060;2023-03-01T16:06:26;5.70;1.00
12700;DHT22;6414;49.570;6.060;2023-03-01T16:09:12;5.70;1.00
12700;DHT22;6414;49.570;6.060;2023-03-01T16:11:58;5.60;1.00
12700;DHT22;6414;49.570;6.060;2023-03-01T16:14:43;5.60;1.00
12700;DHT22;6414;49.570;6.060;2023-03-01T16:17:29;5.60;1.00
12700;DHT22;6414;49.570;6.060;2023-03-01T16:20:14;5.60;1.00
12700;DHT22;6414;49.570;6.060;2023-03-01T16:23:03;5.50;1.00
12700;DHT22;6414;49.570;6.060;2023-03-01T16:25:48;5.50;1.00
12700;DHT22;6414;49.570;6.060;2023-03-01T16:28:33;5.50;1.00
12700;DHT22;6414;49.570;6.060;2023-03-01T16:31:19;5.50;1.00
12700;DHT22;6414;49.570;6.060;2023-03-01T16:34:05;5.50;1.00
12700;DHT22;6414;49.570;6.060;2023-03-01T16:36:51;5.50;1.00
12700;DHT22;6414;49.570;6.060;2023-03-01T16:39:37;5.50;1.00
12700;DHT22;6414;49.570;6.060;2023-03-01T16:42:21;5.40;1.00
12700;DHT22;6414;49.570;6.060;2023-03-01T16:45:06;5.40;1.00
12700;DHT22;6414;49.570;6.060;2023-03-01T16:47:52;5.40;1.00
12700;DHT22;6414;49.570;6.060;2023-03-01T16:50:37;5.30;1.00
12700;DHT22;6414;49.570;6.060;2023-03-01T16:53:22;5.30;1.00
12700;DHT22;6414;49.570;6.060;2023-03-01T16:56:09;5.20;1.00
12700;DHT22;6414;49.570;6.060;2023-03-01T16:58:54;5.20;1.00
12700;DHT22;6414;49.570;6.060;2023-03-01T17:01:39;5.20;1.00
12700;DHT22;6414;49.570;6.060;2023-03-01T17:04:25;5.10;1.00
12700;DHT22;6414;49.570;6.060;2023-03-01T17:07:11;5.00;1.00
12700;DHT22;6414;49.570;6.060;2023-03-01T17:09:57;5.00;1.00
12700;DHT22;6414;49.570;6.060;2023-03-01T17:12:42;5.00;1.00
12700;DHT22;6414;49.570;6.060;2023-03-01T17:15:27;4.80;1.00
12700;DHT22;6414;49.570;6.060;2023-03-01T17:18:12;4.80;1.00
12700;DHT22;6414;49.570;6.060;2023-03-01T17:20:58;4.80;1.00
12700;DHT22;6414;49.570;6.060;2023-03-01T17:23:44;4.80;1.00
12700;DHT22;6414;49.570;6.060;2023-03-01T17:26:29;4.80;1.00
12700;DHT22;6414;49.570;6.060;2023-03-01T17:29:16;4.60;1.00
12700;DHT22;6414;49.570;6.060;2023-03-01T17:32:01;4.60;1.00
12700;DHT22;6414;49.570;6.060;2023-03-01T17:34:47;4.60;1.00
12700;DHT22;6414;49.570;6.060;2023-03-01T17:37:33;4.50;1.00
12700;DHT22;6414;49.570;6.060;2023-03-01T17:40:19;4.50;1.00
12700;DHT22;6414;49.570;6.060;2023-03-01T17:43:05;4.40;1.00
12700;DHT22;6414;49.570;6.060;2023-03-01T17:45:51;4.40;1.00
12700;DHT22;6414;49.570;6.060;2023-03-01T17:48:36;4.40;1.00
12700;DHT22;6414;49.570;6.060;2023-03-01T17:51:22;4.30;1.00
12700;DHT22;6414;49.570;6.060;2023-03-01T17:54:08;4.30;1.00
12700;DHT22;6414;49.570;6.060;2023-03-01T17:56:53;4.20;1.00
12700;DHT22;6414;49.570;6.060;2023-03-01T17:59:39;4.20;1.00
12700;DHT22;6414;49.570;6.060;2023-03-01T18:02:25;4.20;1.00
12700;DHT22;6414;49.570;6.060;2023-03-01T18:05:12;4.20;1.00
12700;DHT22;6414;49.570;6.060;2023-03-01T18:07:58;4.00;1.00
12700;DHT22;6414;49.570;6.060;2023-03-01T18:10:44;4.00;1.00
12700;DHT22;6414;49.570;6.060;2023-03-01T18:13:29;4.10;1.00
12700;DHT22;6414;49.570;6.060;2023-03-01T18:16:16;4.00;1.00
12700;DHT22;6414;49.570;6.060;2023-03-01T18:19:01;4.00;1.00
12700;DHT22;6414;49.570;6.060;2023-03-01T18:21:46;4.00;1.00
12700;DHT22;6414;49.570;6.060;2023-03-01T18:24:31;4.00;1.00
12700;DHT22;6414;49.570;6.060;2023-03-01T18:27:17;3.90;1.00
12700;DHT22;6414;49.570;6.060;2023-03-01T18:30:03;3.80;6.20
12700;DHT22;6414;49.570;6.060;2023-03-01T18:32:48;3.70;10.90
12700;DHT22;6414;49.570;6.060;2023-03-01T18:35:37;3.80;16.60
12700;DHT22;6414;49.570;6.060;2023-03-01T18:38:22;3.70;18.60
12700;DHT22;6414;49.570;6.060;2023-03-01T18:41:07;3.60;32.70
12700;DHT22;6414;49.570;6.060;2023-03-01T18:43:53;3.40;74.70
12700;DHT22;6414;49.570;6.060;2023-03-01T18:46:38;3.50;89.30
12700;DHT22;6414;49.570;6.060;2023-03-01T18:49:23;3.50;98.00
12700;DHT22;6414;49.570;6.060;2023-03-01T18:52:09;3.40;99.90
12700;DHT22;6414;49.570;6.060;2023-03-01T18:54:55;3.40;99.90
12700;DHT22;6414;49.570;6.060;2023-03-01T18:57:40;3.40;99.90
12700;DHT22;6414;49.570;6.060;2023-03-01T19:00:26;3.40;99.90
12700;DHT22;6414;49.570;6.060;2023-03-01T19:03:11;3.30;99.90
12700;DHT22;6414;49.570;6.060;2023-03-01T19:05:57;3.20;99.90
12700;DHT22;6414;49.570;6.060;2023-03-01T19:08:42;3.20;99.90
12700;DHT22;6414;49.570;6.060;2023-03-01T19:11:27;3.20;99.90
12700;DHT22;6414;49.570;6.060;2023-03-01T19:14:13;3.10;99.90
12700;DHT22;6414;49.570;6.060;2023-03-01T19:16:59;3.00;99.90
12700;DHT22;6414;49.570;6.060;2023-03-01T19:19:44;3.00;99.90
12700;DHT22;6414;49.570;6.060;2023-03-01T19:22:30;3.10;99.90
12700;DHT22;6414;49.570;6.060;2023-03-01T19:25:15;3.20;99.90